.
WxDataArchive / Data Records for 2006-05-21
2006-05-20 May 2006 2006-05-22

Data Records for Sunday, 21 May 2006

Time	Temp	Chill	HIndex	Humid	Dewpt	 Wind 	HiWind	WindDir	Rain 	Barom 
-----	----	-----	------	-----	-----	------	------	-------	-----	----- 
00:00	59.6	59.6	59.6	49	40.4	2	6	248	0.00	29.758 
00:05	59.5	59.5	59.5	49	40.3	2	4	248	0.00	29.758 
00:10	59.3	59.3	59.3	50	40.7	2	5	248	0.00	29.758 
00:15	59.3	59.3	59.3	50	40.7	2	7	248	0.00	29.749 
00:20	59.0	59.0	59.0	50	40.4	2	4	248	0.00	29.749 
00:25	58.7	58.7	58.7	50	40.1	2	6	248	0.00	29.749 
00:30	58.9	58.9	58.9	51	40.8	3	6	248	0.00	29.743 
00:35	58.7	58.7	58.7	51	40.6	2	4	248	0.00	29.743 
00:40	58.4	58.4	58.4	51	40.3	2	5	248	0.00	29.743 
00:45	58.4	58.4	58.4	51	40.3	2	9	270	0.00	29.745 
00:50	58.4	58.4	58.4	51	40.3	2	6	270	0.00	29.745 
00:55	58.4	58.4	58.4	51	40.3	2	5	225	0.00	29.745 
01:00	58.4	58.4	58.4	51	40.3	2	6	248	0.00	29.743 
01:05	58.4	58.4	58.4	51	40.3	2	5	248	0.00	29.743 
01:10	58.4	58.4	58.4	51	40.3	2	5	248	0.00	29.743 
01:15	58.6	58.6	58.6	51	40.5	2	7	248	0.00	29.741 
01:20	58.4	58.4	58.4	51	40.3	2	4	248	0.00	29.741 
01:25	58.4	58.4	58.4	51	40.3	2	6	270	0.00	29.741 
01:30	58.4	58.4	58.4	51	40.3	2	5	248	0.00	29.741 
01:35	58.3	58.3	58.3	50	39.7	2	5	248	0.00	29.741 
01:40	58.3	58.3	58.3	51	40.3	2	7	248	0.00	29.741 
01:45	58.4	58.4	58.4	50	39.8	3	5	248	0.00	29.739 
01:50	58.4	58.4	58.4	50	39.8	2	7	248	0.00	29.739 
01:55	58.6	58.6	58.6	50	40.0	2	4	248	0.00	29.739 
02:00	58.6	58.6	58.6	50	40.0	2	5	248	0.00	29.728 
02:05	58.4	58.4	58.4	50	39.8	2	5	248	0.00	29.728 
02:10	58.3	58.3	58.3	51	40.3	2	4	248	0.00	29.728 
02:15	58.3	58.3	58.3	51	40.3	2	6	248	0.00	29.724 
02:20	58.1	58.1	58.1	51	40.1	2	7	248	0.00	29.724 
02:25	58.1	58.1	58.1	51	40.1	2	5	248	0.00	29.724 
02:30	58.1	58.1	58.1	51	40.1	2	7	270	0.00	29.727 
02:35	58.1	58.1	58.1	51	40.1	1	3	248	0.00	29.727 
02:40	58.1	58.1	58.1	51	40.1	2	5	248	0.00	29.727 
02:45	58.1	58.1	58.1	51	40.1	2	4	248	0.00	29.725 
02:50	58.1	58.1	58.1	52	40.6	2	5	248	0.00	29.725 
02:55	58.1	58.1	58.1	52	40.6	2	5	270	0.00	29.725 
03:00	58.3	58.3	58.3	48	38.7	3	6	248	0.00	29.712 
03:05	58.1	58.1	58.1	53	41.1	2	6	248	0.00	29.712 
03:10	58.0	58.0	58.0	53	41.0	2	5	248	0.00	29.712 
03:15	57.8	57.8	57.8	53	40.8	2	4	248	0.00	29.717 
03:20	57.6	57.6	57.6	55	41.6	1	3	292	0.00	29.717 
03:25	57.2	57.2	57.2	56	41.6	2	3	270	0.00	29.717 
03:30	56.7	56.7	56.7	58	42.1	1	3	248	0.00	29.732 
03:35	56.5	56.5	56.5	58	41.9	1	3	292	0.00	29.732 
03:40	56.3	56.3	56.3	59	42.2	1	4	270	0.00	29.732 
03:45	56.3	56.3	56.3	60	42.6	1	3	270	0.00	29.734 
03:50	56.2	56.2	56.2	61	42.9	1	4	270	0.00	29.734 
03:55	56.0	56.0	56.0	61	42.7	1	2	248	0.00	29.734 
04:00	55.9	55.9	55.9	61	42.6	1	2	248	0.00	29.734 
04:05	55.7	55.7	55.7	62	42.9	0	1	248	0.00	29.734 
04:10	55.6	55.6	55.6	62	42.8	0	2	248	0.00	29.734 
04:15	55.4	55.4	55.4	62	42.6	1	4	248	0.00	29.740 
04:20	55.4	55.4	55.4	62	42.6	1	3	248	0.00	29.740 
04:25	55.4	55.4	55.4	62	42.6	1	3	248	0.00	29.740 
04:30	55.4	55.4	55.4	63	43.0	1	3	248	0.00	29.729 
04:35	55.4	55.4	55.4	63	43.0	1	3	248	0.00	29.729 
04:40	55.4	55.4	55.4	63	43.0	1	3	248	0.00	29.729 
04:45	55.6	55.6	55.6	63	43.2	1	3	270	0.00	29.740 
04:50	55.7	55.7	55.7	63	43.3	1	3	248	0.00	29.740 
04:55	55.7	55.7	55.7	63	43.3	0	1	248	0.00	29.740 
05:00	55.6	55.6	55.6	63	43.2	0	1	248	0.00	29.741 
05:05	55.6	55.6	55.6	64	43.6	0	1	248	0.00	29.741 
05:10	55.4	55.4	55.4	64	43.4	1	2	248	0.00	29.741 
05:15	55.4	55.4	55.4	64	43.4	1	2	248	0.00	29.748 
05:20	55.4	55.4	55.4	65	43.8	0	2	248	0.00	29.748 
05:25	55.4	55.4	55.4	65	43.8	0	3	248	0.00	29.748 
05:30	54.1	54.1	54.1	67	43.4	2	6	68	0.00	29.772 
05:35	52.3	52.3	52.3	70	42.8	1	4	158	0.00	29.772 
05:40	51.0	51.0	51.0	71	41.9	1	5	338	0.00	29.772 
05:45	49.9	49.9	49.9	71	40.9	1	4	68	0.00	29.805 
05:50	49.1	49.1	49.1	73	40.8	1	5	135	0.00	29.805 
05:55	48.6	48.6	48.6	74	40.7	1	3	112	0.00	29.805 
06:00	48.3	48.3	48.3	74	40.4	0	2	0	0.00	29.813 
06:05	48.0	48.0	48.0	76	40.8	0	1	68	0.00	29.813 
06:10	47.9	47.9	47.9	76	40.7	0	1	45	0.00	29.813 
06:15	47.7	47.7	47.7	77	40.8	1	3	45	0.00	29.815 
06:20	47.6	47.6	47.6	77	40.8	0	2	90	0.00	29.815 
06:25	47.6	47.6	47.6	77	40.8	0	1	90	0.00	29.815 
06:30	47.6	47.6	47.6	74	39.7	1	4	90	0.00	29.837 
06:35	47.6	47.6	47.6	74	39.7	0	1	22	0.00	29.837 
06:40	47.6	47.6	47.6	71	38.7	1	4	315	0.00	29.837 
06:45	47.6	47.6	47.6	70	38.3	0	2	45	0.00	29.838 
06:50	47.6	47.6	47.6	70	38.3	0	2	45	0.00	29.838 
06:55	47.6	47.6	47.6	68	37.6	0	1	45	0.00	29.838 
07:00	47.6	47.6	47.6	67	37.2	0	2	45	0.00	29.838 
07:05	47.6	47.6	47.6	64	36.0	0	2	315	0.00	29.838 
07:10	47.6	47.6	47.6	65	36.4	0	1	315	0.00	29.838 
07:15	47.6	47.6	47.6	62	35.2	0	1	315	0.00	29.844 
07:20	47.6	47.6	47.6	62	35.2	0	3	315	0.00	29.844 
07:25	47.7	47.7	47.7	62	35.3	0	2	270	0.00	29.844 
07:30	47.7	47.7	47.7	62	35.3	0	1	270	0.00	29.846 
07:35	47.7	47.7	47.7	62	35.3	0	1	270	0.00	29.846 
07:40	47.7	47.7	47.7	62	35.3	0	2	270	0.00	29.846 
07:45	47.9	47.9	47.9	62	35.5	0	1	270	0.00	29.847 
07:50	47.9	47.9	47.9	62	35.5	0	1	270	0.00	29.847 
07:55	47.9	47.9	47.9	62	35.5	0	2	270	0.00	29.847 
08:00	47.9	47.9	47.9	63	35.9	0	1	270	0.00	29.851 
08:05	48.0	48.0	48.0	64	36.4	0	1	270	0.00	29.851 
08:10	48.2	48.2	48.2	63	36.2	0	1	270	0.00	29.851 
08:15	48.3	48.3	48.3	62	35.9	0	3	270	0.00	29.858 
08:20	48.5	48.5	48.5	62	36.1	0	1	270	0.00	29.858 
08:25	48.8	48.8	48.8	63	36.8	0	1	270	0.00	29.858 
08:30	49.1	49.1	49.1	63	37.1	1	4	315	0.00	29.861 
08:35	49.2	49.2	49.2	60	35.9	1	2	315	0.00	29.861 
08:40	49.4	49.4	49.4	58	35.2	1	3	315	0.00	29.861 
08:45	49.5	49.5	49.5	53	33.1	1	4	292	0.00	29.869 
08:50	49.6	49.6	49.6	52	32.7	1	2	315	0.00	29.869 
08:55	49.8	49.8	49.8	51	32.4	1	2	315	0.00	29.869 
09:00	49.9	49.9	49.9	51	32.5	1	2	90	0.00	29.870 
09:05	50.5	50.5	50.5	52	33.5	1	4	292	0.00	29.870 
09:10	51.4	51.4	51.4	52	34.4	1	5	270	0.00	29.870 
09:15	52.3	52.3	52.3	49	33.7	1	5	292	0.00	29.876 
09:20	53.2	53.2	53.2	48	34.0	1	3	315	0.00	29.876 
09:25	52.8	52.8	52.8	42	30.3	3	6	292	0.00	29.876 
09:30	52.9	52.9	52.9	42	30.4	1	5	292	0.00	29.878 
09:35	53.1	53.1	53.1	44	31.8	2	6	338	0.00	29.878 
09:40	53.5	53.5	53.5	43	31.6	2	5	315	0.00	29.878 
09:45	53.9	53.9	53.9	43	31.9	2	4	270	0.00	29.879 
09:50	54.4	54.4	54.4	43	32.4	2	5	292	0.00	29.879 
09:55	54.1	54.1	54.1	38	29.1	3	9	270	0.00	29.879 
10:00	54.2	54.2	54.2	38	29.2	2	6	22	0.00	29.885 
10:05	54.2	54.2	54.2	39	29.8	2	6	292	0.00	29.885 
10:10	54.1	54.1	54.1	38	29.1	3	7	292	0.00	29.885 
10:15	54.2	54.2	54.2	41	31.0	2	6	270	0.00	29.889 
10:20	54.7	54.7	54.7	42	32.1	2	5	270	0.00	29.889 
10:25	54.7	54.7	54.7	39	30.2	3	11	292	0.00	29.889 
10:30	54.8	54.8	54.8	36	28.4	2	6	0	0.00	29.888 
10:35	55.0	55.0	55.0	38	29.9	2	6	338	0.00	29.888 
10:40	55.1	55.1	55.1	38	30.0	2	6	45	0.00	29.888 
10:45	55.0	55.0	55.0	35	27.9	2	6	315	0.00	29.890 
10:50	55.1	55.1	55.1	35	27.9	1	4	338	0.00	29.890 
10:55	55.4	55.4	55.4	36	28.9	1	4	315	0.00	29.890 
11:00	56.3	56.3	56.3	39	31.7	2	4	292	0.00	29.889 
11:05	56.0	56.0	56.0	38	30.8	3	9	292	0.00	29.889 
11:10	55.9	55.9	55.9	38	30.7	3	7	292	0.00	29.889 
11:15	56.2	56.2	56.2	37	30.3	2	5	292	0.00	29.888 
11:20	56.3	56.3	56.3	35	29.0	2	4	292	0.00	29.888 
11:25	56.5	56.5	56.5	34	28.5	3	6	270	0.00	29.888 
11:30	56.7	56.7	56.7	36	30.0	2	5	292	0.00	29.891 
11:35	57.0	57.0	57.0	35	29.6	2	5	292	0.00	29.891 
11:40	56.9	56.9	56.9	31	26.6	3	6	315	0.00	29.891 
11:45	56.7	56.7	56.7	33	27.9	2	5	315	0.00	29.891 
11:50	56.9	56.9	56.9	32	27.4	2	9	338	0.00	29.891 
11:55	57.5	57.5	57.5	34	29.4	1	4	315	0.00	29.891 
12:00	57.8	57.8	57.8	36	31.0	3	6	315	0.00	29.888 
12:05	57.6	57.6	57.6	34	29.4	3	7	292	0.00	29.888 
12:10	57.8	57.8	57.8	36	31.0	3	6	292	0.00	29.888 
12:15	58.0	58.0	58.0	37	31.9	2	5	315	0.00	29.889 
12:20	57.8	57.8	57.8	39	33.0	2	6	315	0.00	29.889 
12:25	58.1	58.1	58.1	35	30.6	3	5	292	0.00	29.889 
12:30	58.1	58.1	58.1	34	29.9	3	10	270	0.00	29.888 
12:35	58.1	58.1	58.1	36	31.3	3	10	292	0.00	29.888 
12:40	58.3	58.3	58.3	35	30.8	2	5	315	0.00	29.888 
12:45	58.4	58.4	58.4	39	33.5	3	5	270	0.00	29.889 
12:50	58.9	58.9	58.9	31	28.3	3	6	315	0.00	29.889 
12:55	58.4	58.4	58.4	33	29.4	3	6	270	0.00	29.889 
13:00	58.7	58.7	58.7	32	28.9	3	10	315	0.00	29.895 
13:05	59.0	59.0	59.0	33	29.9	3	6	315	0.00	29.895 
13:10	59.2	59.2	59.2	32	29.4	2	4	315	0.00	29.895 
13:15	59.5	59.5	59.5	32	29.6	2	3	315	0.00	29.892 
13:20	59.9	59.9	59.9	35	32.2	2	5	315	0.00	29.892 
13:25	59.9	59.9	59.9	36	32.9	2	6	292	0.00	29.892 
13:30	59.9	59.9	59.9	31	29.2	3	10	315	0.00	29.898 
13:35	59.8	59.8	59.8	39	34.8	2	4	292	0.00	29.898 
13:40	59.6	59.6	59.6	31	28.9	3	12	292	0.00	29.898 
13:45	59.6	59.6	59.6	31	28.9	3	7	292	0.00	29.897 
13:50	59.8	59.8	59.8	32	29.9	4	13	248	0.00	29.897 
13:55	60.1	60.1	60.1	34	31.6	3	6	315	0.00	29.897 
14:00	60.1	60.1	60.1	30	28.6	3	7	292	0.00	29.897 
14:05	60.1	60.1	60.1	34	31.6	3	6	292	0.00	29.897 
14:10	60.1	60.1	60.1	35	32.4	3	8	315	0.00	29.897 
14:15	60.2	60.2	60.2	36	33.1	3	6	338	0.00	29.898 
14:20	60.4	60.4	60.4	31	29.6	3	6	315	0.00	29.898 
14:25	60.4	60.4	60.4	31	29.6	3	7	270	0.00	29.898 
14:30	60.9	60.9	60.9	34	32.3	2	5	270	0.00	29.896 
14:35	61.0	61.0	61.0	29	28.5	3	5	270	0.00	29.896 
14:40	60.7	60.7	60.7	27	26.5	3	7	315	0.00	29.896 
14:45	60.5	60.5	60.5	28	27.2	2	6	338	0.00	29.900 
14:50	60.4	60.4	60.4	31	29.6	3	6	292	0.00	29.900 
14:55	60.5	60.5	60.5	28	27.2	3	6	270	0.00	29.900 
15:00	61.0	61.0	61.0	33	31.7	2	4	292	0.00	29.897 
15:05	61.0	61.0	61.0	30	29.3	2	6	338	0.00	29.897 
15:10	60.7	60.7	60.7	29	28.3	2	6	292	0.00	29.897 
15:15	60.4	60.4	60.4	27	26.3	4	8	292	0.00	29.905 
15:20	60.7	60.7	60.7	35	32.9	3	6	315	0.00	29.905 
15:25	60.7	60.7	60.7	30	29.1	3	7	270	0.00	29.905 
15:30	60.5	60.5	60.5	31	29.7	3	6	270	0.00	29.904 
15:35	60.7	60.7	60.7	28	27.4	3	6	292	0.00	29.904 
15:40	60.4	60.4	60.4	33	31.2	3	7	338	0.00	29.904 
15:45	60.7	60.7	60.7	31	29.9	2	6	270	0.00	29.905 
15:50	61.0	61.0	61.0	37	34.5	2	4	338	0.00	29.905 
15:55	61.2	61.2	61.2	32	31.1	3	7	270	0.00	29.905 
16:00	60.7	60.7	60.7	28	27.4	4	10	292	0.00	29.907 
16:05	60.2	60.2	60.2	33	31.0	2	6	315	0.00	29.907 
16:10	60.7	60.7	60.7	32	30.7	3	6	270	0.00	29.907 
16:15	60.2	60.2	60.2	31	29.5	3	10	315	0.00	29.907 
16:20	60.2	60.2	60.2	33	31.0	2	6	270	0.00	29.907 
16:25	59.8	59.8	59.8	33	30.6	2	5	270	0.00	29.907 
16:30	59.6	59.6	59.6	32	29.7	2	11	315	0.00	29.908 
16:35	59.6	59.6	59.6	32	29.7	2	5	270	0.00	29.908 
16:40	59.3	59.3	59.3	33	30.2	3	7	270	0.00	29.908 
16:45	59.8	59.8	59.8	33	30.6	2	4	0	0.00	29.908 
16:50	59.8	59.8	59.8	35	32.1	2	6	315	0.00	29.908 
16:55	59.3	59.3	59.3	35	31.7	3	7	292	0.00	29.908 
17:00	59.6	59.6	59.6	36	32.6	2	7	292	0.00	29.913 
17:05	59.2	59.2	59.2	38	33.6	3	9	315	0.00	29.913 
17:10	58.9	58.9	58.9	37	32.7	3	10	315	0.00	29.913 
17:15	58.7	58.7	58.7	40	34.4	2	6	270	0.00	29.924 
17:20	59.0	59.0	59.0	38	33.4	2	5	270	0.00	29.924 
17:25	58.4	58.4	58.4	39	33.5	2	7	315	0.00	29.924 
17:30	58.4	58.4	58.4	36	31.6	3	6	315	0.00	29.928 
17:35	58.7	58.7	58.7	39	33.8	1	4	315	0.00	29.928 
17:40	58.4	58.4	58.4	37	32.2	2	8	338	0.00	29.928 
17:45	58.3	58.3	58.3	35	30.8	2	5	292	0.00	29.930 
17:50	58.0	58.0	58.0	35	30.5	2	5	315	0.00	29.930 
17:55	57.6	57.6	57.6	34	29.4	2	5	338	0.00	29.930 
18:00	57.2	57.2	57.2	38	31.8	2	6	315	0.00	29.939 
18:05	56.9	56.9	56.9	33	28.1	3	10	292	0.00	29.939 
18:10	56.6	56.6	56.6	35	29.3	2	6	315	0.00	29.939 
18:15	56.2	56.2	56.2	37	30.3	3	7	315	0.00	29.946 
18:20	56.0	56.0	56.0	36	29.4	2	4	338	0.00	29.946 
18:25	56.0	56.0	56.0	38	30.8	3	6	292	0.00	29.946 
18:30	56.2	56.2	56.2	42	33.4	1	4	315	0.00	29.945 
18:35	55.7	55.7	55.7	40	31.8	2	4	338	0.00	29.945 
18:40	55.1	55.1	55.1	40	31.2	3	11	315	0.00	29.945 
18:45	54.5	54.5	54.5	41	31.3	2	7	315	0.00	29.949 
18:50	53.9	53.9	53.9	42	31.3	2	5	270	0.00	29.949 
18:55	53.3	53.3	53.3	41	30.2	2	7	292	0.00	29.949 
19:00	52.9	52.9	52.9	43	31.0	2	7	292	0.00	29.960 
19:05	52.6	52.6	52.6	43	30.7	2	4	338	0.00	29.960 
19:10	52.5	52.5	52.5	43	30.7	2	11	315	0.00	29.960 
19:15	52.5	52.5	52.5	46	32.3	1	3	338	0.00	29.966 
19:20	52.6	52.6	52.6	44	31.3	1	4	315	0.00	29.966 
19:25	52.5	52.5	52.5	43	30.7	1	4	338	0.00	29.966 
19:30	52.6	52.6	52.6	44	31.3	1	3	338	0.00	29.975 
19:35	52.9	52.9	52.9	43	31.0	2	6	0	0.00	29.975 
19:40	52.8	52.8	52.8	43	30.9	2	6	292	0.00	29.975 
19:45	52.6	52.6	52.6	43	30.7	2	5	292	0.00	29.981 
19:50	52.2	52.2	52.2	47	32.6	1	4	270	0.00	29.981 
19:55	52.0	52.0	52.0	47	32.4	0	1	158	0.00	29.981 
20:00	51.7	51.7	51.7	46	31.6	1	3	338	0.00	29.988 
20:05	51.4	51.4	51.4	43	29.7	1	4	292	0.00	29.988 
20:10	51.0	51.0	51.0	44	29.9	2	5	270	0.00	29.988 
20:15	50.7	50.7	50.7	45	30.1	2	5	292	0.00	29.992 
20:20	50.4	50.4	50.4	46	30.4	1	3	270	0.00	29.992 
20:25	50.2	50.2	50.2	48	31.3	1	4	292	0.00	29.992 
20:30	50.1	50.1	50.1	48	31.2	1	3	270	0.00	29.995 
20:35	49.9	49.9	49.9	48	31.0	0	2	248	0.00	29.995 
20:40	49.8	49.8	49.8	49	31.4	0	2	315	0.00	29.995 
20:45	49.6	49.6	49.6	48	30.7	1	5	292	0.00	29.998 
20:50	49.4	49.4	49.4	48	30.5	1	3	292	0.00	29.998 
20:55	49.2	49.2	49.2	49	30.9	1	3	292	0.00	29.998 
21:00	48.9	48.9	48.9	49	30.6	1	3	292	0.00	29.999 
21:05	48.9	48.9	48.9	50	31.1	1	4	292	0.00	29.999 
21:10	48.8	48.8	48.8	49	30.5	1	4	270	0.00	29.999 
21:15	48.6	48.6	48.6	50	30.8	1	4	315	0.00	29.997 
21:20	48.5	48.5	48.5	50	30.7	1	4	270	0.00	29.997 
21:25	48.3	48.3	48.3	50	30.5	0	2	338	0.00	29.997 
21:30	48.2	48.2	48.2	49	29.9	1	6	338	0.00	30.006 
21:35	48.0	48.0	48.0	50	30.3	1	5	270	0.00	30.006 
21:40	48.0	48.0	48.0	50	30.3	1	3	315	0.00	30.006 
21:45	47.9	47.9	47.9	50	30.2	1	3	315	0.00	30.010 
21:50	47.7	47.7	47.7	51	30.5	1	3	315	0.00	30.010 
21:55	47.6	47.6	47.6	51	30.4	1	2	292	0.00	30.010 
22:00	47.4	47.4	47.4	52	30.7	0	3	292	0.00	30.016 
22:05	47.1	47.1	47.1	52	30.4	1	3	292	0.00	30.016 
22:10	47.1	47.1	47.1	52	30.4	1	3	315	0.00	30.016 
22:15	47.0	47.0	47.0	53	30.8	0	2	338	0.00	30.021 
22:20	46.7	46.7	46.7	54	30.9	0	2	338	0.00	30.021 
22:25	46.4	46.4	46.4	55	31.1	0	1	315	0.00	30.021 
22:30	46.2	46.2	46.2	55	30.9	0	1	315	0.00	30.027 
22:35	46.1	46.1	46.1	56	31.3	0	1	315	0.00	30.027 
22:40	45.8	45.8	45.8	56	31.0	0	1	315	0.00	30.027 
22:45	45.7	45.7	45.7	58	31.8	0	0	---	0.00	30.029 
22:50	45.4	45.4	45.4	57	31.1	0	1	315	0.00	30.029 
22:55	45.2	45.2	45.2	58	31.3	0	1	315	0.00	30.029 
23:00	45.1	45.1	45.1	58	31.2	0	1	315	0.00	30.036 
23:05	44.9	44.9	44.9	59	31.5	0	1	315	0.00	30.036 
23:10	44.9	44.9	44.9	59	31.5	0	0	---	0.00	30.036 
23:15	44.6	44.6	44.6	59	31.2	0	0	---	0.00	30.042 
23:20	44.6	44.6	44.6	60	31.6	0	1	315	0.00	30.042 
23:25	44.5	44.5	44.5	60	31.5	0	0	---	0.00	30.042 
23:30	44.2	44.2	44.2	61	31.6	0	0	---	0.00	30.045 
23:35	44.1	44.1	44.1	61	31.5	0	0	---	0.00	30.045 
23:40	43.8	43.8	43.8	62	31.6	0	0	---	0.00	30.045 
23:45	43.5	43.5	43.5	63	31.8	0	0	---	0.00	30.051 
23:50	43.2	43.2	43.2	64	31.9	0	0	---	0.00	30.051 
23:55	43.1	43.1	43.1	65	32.1	0	0	---	0.00	30.051 

CoCoRaHS
IN-AL-39
A2 Web Hosting
Creative Commons License
GoDaddy
Look for:

loaded 2017-12-13 02:45:54 • last modified 2010-11-18 10:43:29
Privacy PolicyDisclaimer
• wx.awcolley.com is powered by PmWiki v.2002016 •
• all content (unless otherwise noted) © 2017 A W Colley